Time,TemperatureF,DewpointF,PressureIn,WindDirection,WindDirectionDegrees,WindSpeedMPH,WindSpeedGustMPH,Humidity,HourlyPrecipIn,Conditions,Clouds,dailyrainin,SolarRadiationWatts/m^2,SoftwareType,DateUTC
2013-02-13 00:21:00,29.0,24.0,-100.00,East,79,2.0,7.0,82,0.00,,,0.00,1.000000,,2013-02-13 08:21:00,
2013-02-13 00:31:00,29.0,24.0,-100.00,East,79,2.0,7.0,82,0.00,,,0.00,1.000000,,2013-02-13 08:31:00,
2013-02-13 00:43:00,29.0,24.0,-100.00,East,79,2.0,7.0,82,0.00,,,0.00,1.000000,,2013-02-13 08:43:00,
2013-02-13 00:52:00,29.0,24.0,-100.00,East,79,2.0,7.0,82,0.00,,,0.00,1.000000,,2013-02-13 08:52:00,
2013-02-13 01:21:00,27.0,25.0,-100.00,NE,54,4.0,5.0,92,0.00,,,0.00,1.000000,,2013-02-13 09:21:00,
2013-02-13 01:31:00,27.0,25.0,-100.00,NE,54,4.0,5.0,92,0.00,,,0.00,1.000000,,2013-02-13 09:31:00,
2013-02-13 01:41:00,27.0,25.0,-100.00,NE,54,4.0,5.0,92,0.00,,,0.00,1.000000,,2013-02-13 09:41:00,
2013-02-13 01:51:00,27.0,25.0,-100.00,NE,54,4.0,5.0,92,0.00,,,0.00,1.000000,,2013-02-13 09:51:00,
2013-02-13 02:21:00,25.0,23.0,-100.00,East,80,4.0,6.0,93,0.00,,,0.00,1.000000,,2013-02-13 10:21:00,
2013-02-13 02:31:00,25.0,23.0,-100.00,East,80,4.0,6.0,93,0.00,,,0.00,1.000000,,2013-02-13 10:31:00,
2013-02-13 02:41:00,25.0,23.0,-100.00,East,80,4.0,6.0,93,0.00,,,0.00,1.000000,,2013-02-13 10:41:00,
2013-02-13 02:51:00,25.0,23.0,-100.00,East,80,4.0,6.0,93,0.00,,,0.00,1.000000,,2013-02-13 10:51:00,
2013-02-13 03:22:00,28.0,25.0,-100.00,NNE,12,4.0,8.0,89,0.00,,,0.00,1.000000,,2013-02-13 11:22:00,
2013-02-13 03:32:00,28.0,25.0,-100.00,NNE,12,4.0,8.0,89,0.00,,,0.00,1.000000,,2013-02-13 11:32:00,
2013-02-13 03:42:00,28.0,25.0,-100.00,NNE,12,4.0,8.0,89,0.00,,,0.00,1.000000,,2013-02-13 11:42:00,
2013-02-13 03:52:00,28.0,25.0,-100.00,NNE,12,4.0,8.0,89,0.00,,,0.00,1.000000,,2013-02-13 11:52:00,
2013-02-13 04:21:00,26.0,23.0,-100.00,East,98,3.0,5.0,90,0.00,,,0.00,1.000000,,2013-02-13 12:21:00,
2013-02-13 04:32:00,26.0,23.0,-100.00,East,98,3.0,5.0,90,0.00,,,0.00,1.000000,,2013-02-13 12:32:00,
2013-02-13 04:42:00,26.0,23.0,-100.00,East,98,3.0,5.0,90,0.00,,,0.00,1.000000,,2013-02-13 12:42:00,
2013-02-13 04:52:00,26.0,23.0,-100.00,East,98,3.0,5.0,90,0.00,,,0.00,1.000000,,2013-02-13 12:52:00,
2013-02-13 05:21:00,27.0,24.0,-100.00,East,92,2.0,5.0,88,0.00,,,0.00,1.000000,,2013-02-13 13:21:00,
2013-02-13 05:31:00,27.0,24.0,-100.00,East,92,2.0,5.0,88,0.00,,,0.00,1.000000,,2013-02-13 13:31:00,
2013-02-13 05:41:00,27.0,24.0,-100.00,East,92,2.0,5.0,88,0.00,,,0.00,1.000000,,2013-02-13 13:41:00,
2013-02-13 05:51:00,27.0,24.0,-100.00,East,92,2.0,5.0,88,0.00,,,0.00,1.000000,,2013-02-13 13:51:00,
2013-02-13 06:21:00,27.0,24.0,-100.00,ENE,59,6.0,8.0,89,0.00,,,0.00,1.000000,,2013-02-13 14:21:00,
2013-02-13 06:31:00,27.0,24.0,-100.00,ENE,59,6.0,8.0,89,0.00,,,0.00,1.000000,,2013-02-13 14:31:00,
2013-02-13 06:41:00,27.0,24.0,-100.00,ENE,59,6.0,8.0,89,0.00,,,0.00,1.000000,,2013-02-13 14:41:00,
2013-02-13 06:52:00,27.0,24.0,-100.00,ENE,59,6.0,8.0,89,0.00,,,0.00,1.000000,,2013-02-13 14:52:00,
2013-02-13 07:21:00,27.0,24.0,-100.00,NE,48,1.0,8.0,87,0.00,,,0.00,1.000000,,2013-02-13 15:21:00,
2013-02-13 07:32:00,27.0,24.0,-100.00,NE,48,1.0,8.0,87,0.00,,,0.00,1.000000,,2013-02-13 15:32:00,
2013-02-13 07:42:00,27.0,24.0,-100.00,NE,48,1.0,8.0,87,0.00,,,0.00,1.000000,,2013-02-13 15:42:00,
2013-02-13 07:51:00,27.0,24.0,-100.00,NE,48,1.0,8.0,87,0.00,,,0.00,1.000000,,2013-02-13 15:51:00,
2013-02-13 08:11:00,27.0,24.0,-100.00,ENE,76,3.0,5.0,88,0.00,,,0.00,25.000000,,2013-02-13 16:11:00,
2013-02-13 08:21:00,27.0,24.0,-100.00,ENE,76,3.0,5.0,88,0.00,,,0.00,25.000000,,2013-02-13 16:21:00,
2013-02-13 08:31:00,27.0,24.0,-100.00,ENE,76,3.0,5.0,88,0.00,,,0.00,25.000000,,2013-02-13 16:31:00,
2013-02-13 08:41:00,27.0,24.0,-100.00,ENE,76,3.0,5.0,88,0.00,,,0.00,25.000000,,2013-02-13 16:41:00,
2013-02-13 08:51:00,27.0,24.0,-100.00,ENE,76,3.0,5.0,88,0.00,,,0.00,25.000000,,2013-02-13 16:51:00,
2013-02-13 09:21:00,37.0,27.0,-100.00,NNE,31,2.0,5.0,67,0.00,,,0.00,156.000000,,2013-02-13 17:21:00,
2013-02-13 09:31:00,37.0,27.0,-100.00,NNE,31,2.0,5.0,67,0.00,,,0.00,156.000000,,2013-02-13 17:31:00,
2013-02-13 09:41:00,37.0,27.0,-100.00,NNE,31,2.0,5.0,67,0.00,,,0.00,156.000000,,2013-02-13 17:41:00,
2013-02-13 09:52:00,37.0,27.0,-100.00,NNE,31,2.0,5.0,67,0.00,,,0.00,156.000000,,2013-02-13 17:52:00,
2013-02-13 10:22:00,38.0,27.0,-100.00,West,274,2.0,6.0,64,0.00,,,0.00,284.000000,,2013-02-13 18:22:00,
2013-02-13 10:32:00,38.0,27.0,-100.00,West,274,2.0,6.0,64,0.00,,,0.00,284.000000,,2013-02-13 18:32:00,
2013-02-13 10:41:00,38.0,27.0,-100.00,West,274,2.0,6.0,64,0.00,,,0.00,284.000000,,2013-02-13 18:41:00,
2013-02-13 10:51:00,38.0,27.0,-100.00,West,274,2.0,6.0,64,0.00,,,0.00,284.000000,,2013-02-13 18:51:00,
2013-02-13 11:21:00,43.0,29.0,-100.00,WSW,243,4.0,7.0,57,0.00,,,0.00,216.000000,,2013-02-13 19:21:00,
2013-02-13 11:31:00,43.0,29.0,-100.00,WSW,243,4.0,7.0,57,0.00,,,0.00,216.000000,,2013-02-13 19:31:00,
2013-02-13 11:41:00,43.0,29.0,-100.00,WSW,243,4.0,7.0,57,0.00,,,0.00,216.000000,,2013-02-13 19:41:00,
2013-02-13 11:51:00,43.0,29.0,-100.00,WSW,243,4.0,7.0,57,0.00,,,0.00,216.000000,,2013-02-13 19:51:00,
2013-02-13 12:21:00,46.0,29.0,-100.00,West,259,4.0,7.0,52,0.00,,,0.00,588.000000,,2013-02-13 20:21:00,
2013-02-13 12:31:00,46.0,29.0,-100.00,West,259,4.0,7.0,52,0.00,,,0.00,588.000000,,2013-02-13 20:31:00,
2013-02-13 12:41:00,46.0,29.0,-100.00,West,259,4.0,7.0,52,0.00,,,0.00,588.000000,,2013-02-13 20:41:00,
2013-02-13 12:52:00,46.0,29.0,-100.00,West,259,4.0,7.0,52,0.00,,,0.00,588.000000,,2013-02-13 20:52:00,
2013-02-13 13:21:00,49.0,31.0,-100.00,West,261,5.0,8.0,49,0.00,,,0.00,641.000000,,2013-02-13 21:21:00,
2013-02-13 13:31:00,49.0,31.0,-100.00,West,261,5.0,8.0,49,0.00,,,0.00,641.000000,,2013-02-13 21:31:00,
2013-02-13 13:42:00,49.0,31.0,-100.00,West,261,5.0,8.0,49,0.00,,,0.00,641.000000,,2013-02-13 21:42:00,
2013-02-13 13:52:00,49.0,31.0,-100.00,West,261,5.0,8.0,49,0.00,,,0.00,641.000000,,2013-02-13 21:52:00,
2013-02-13 14:21:00,49.0,30.0,-100.00,WSW,249,5.0,9.0,47,0.00,,,0.00,606.000000,,2013-02-13 22:21:00,
2013-02-13 14:31:00,49.0,30.0,-100.00,WSW,249,5.0,9.0,47,0.00,,,0.00,606.000000,,2013-02-13 22:31:00,
2013-02-13 14:42:00,49.0,30.0,-100.00,WSW,249,5.0,9.0,47,0.00,,,0.00,606.000000,,2013-02-13 22:42:00,
2013-02-13 14:51:00,49.0,30.0,-100.00,WSW,249,5.0,9.0,47,0.00,,,0.00,606.000000,,2013-02-13 22:51:00,
2013-02-13 15:21:00,51.0,28.0,-100.00,WSW,246,4.0,7.0,41,0.00,,,-99.99,499.000000,,2013-02-13 23:21:00,
2013-02-13 15:32:00,51.0,28.0,-100.00,WSW,246,4.0,7.0,41,0.00,,,-99.99,499.000000,,2013-02-13 23:32:00,
2013-02-13 15:41:00,51.0,28.0,-100.00,WSW,246,4.0,7.0,41,0.00,,,-99.99,499.000000,,2013-02-13 23:41:00,
2013-02-13 15:52:00,51.0,28.0,-100.00,WSW,246,4.0,7.0,41,0.00,,,-99.99,499.000000,,2013-02-13 23:52:00,
2013-02-13 16:21:00,48.0,28.0,-100.00,WNW,283,5.0,9.0,45,0.00,,,0.00,356.000000,,2013-02-14 00:21:00,
2013-02-13 16:31:00,48.0,28.0,-100.00,WNW,283,5.0,9.0,45,0.00,,,0.00,356.000000,,2013-02-14 00:31:00,
2013-02-13 16:42:00,48.0,28.0,-100.00,WNW,283,5.0,9.0,45,0.00,,,0.00,356.000000,,2013-02-14 00:42:00,
2013-02-13 16:51:00,48.0,28.0,-100.00,WNW,283,5.0,9.0,45,0.00,,,0.00,356.000000,,2013-02-14 00:51:00,
2013-02-13 17:21:00,45.0,30.0,-100.00,WNW,285,8.0,15.0,55,0.00,,,0.00,160.000000,,2013-02-14 01:21:00,
2013-02-13 17:31:00,45.0,30.0,-100.00,WNW,285,8.0,15.0,55,0.00,,,0.00,160.000000,,2013-02-14 01:31:00,
2013-02-13 17:41:00,45.0,30.0,-100.00,WNW,285,8.0,15.0,55,0.00,,,0.00,160.000000,,2013-02-14 01:41:00,
2013-02-13 17:51:00,45.0,30.0,-100.00,WNW,285,8.0,15.0,55,0.00,,,0.00,160.000000,,2013-02-14 01:51:00,
2013-02-13 18:21:00,40.0,29.0,-100.00,SW,230,4.0,11.0,65,0.00,,,0.00,45.000000,,2013-02-14 02:21:00,
2013-02-13 18:31:00,40.0,29.0,-100.00,SW,230,4.0,11.0,65,0.00,,,0.00,45.000000,,2013-02-14 02:31:00,
2013-02-13 18:41:00,40.0,29.0,-100.00,SW,230,4.0,11.0,65,0.00,,,0.00,45.000000,,2013-02-14 02:41:00,
2013-02-13 18:51:00,40.0,29.0,-100.00,SW,230,4.0,11.0,65,0.00,,,0.00,45.000000,,2013-02-14 02:51:00,
2013-02-13 19:21:00,39.0,28.0,-100.00,NW,311,9.0,12.0,65,0.00,,,0.00,1.000000,,2013-02-14 03:21:00,
2013-02-13 19:31:00,39.0,28.0,-100.00,NW,311,9.0,12.0,65,0.00,,,0.00,1.000000,,2013-02-14 03:31:00,
2013-02-13 19:42:00,39.0,28.0,-100.00,NW,311,9.0,12.0,65,0.00,,,0.00,1.000000,,2013-02-14 03:42:00,
2013-02-13 19:51:00,39.0,28.0,-100.00,NW,311,9.0,12.0,65,0.00,,,0.00,1.000000,,2013-02-14 03:51:00,
2013-02-13 20:11:00,37.0,28.0,-100.00,NNE,28,3.0,10.0,69,0.00,,,0.00,1.000000,,2013-02-14 04:11:00,
2013-02-13 20:21:00,37.0,28.0,-100.00,NNE,28,3.0,10.0,69,0.00,,,0.00,1.000000,,2013-02-14 04:21:00,
2013-02-13 20:31:00,37.0,28.0,-100.00,NNE,28,3.0,10.0,69,0.00,,,0.00,1.000000,,2013-02-14 04:31:00,
2013-02-13 20:41:00,37.0,28.0,-100.00,NNE,28,3.0,10.0,69,0.00,,,0.00,1.000000,,2013-02-14 04:41:00,
2013-02-13 20:51:00,37.0,28.0,-100.00,NNE,28,3.0,10.0,69,0.00,,,0.00,1.000000,,2013-02-14 04:51:00,
2013-02-13 21:21:00,37.0,29.0,-100.00,NNE,25,4.0,5.0,72,0.00,,,0.00,1.000000,,2013-02-14 05:21:00,
2013-02-13 21:31:00,37.0,29.0,-100.00,NNE,25,4.0,5.0,72,0.00,,,0.00,1.000000,,2013-02-14 05:31:00,
2013-02-13 21:41:00,37.0,29.0,-100.00,NNE,25,4.0,5.0,72,0.00,,,0.00,1.000000,,2013-02-14 05:41:00,
2013-02-13 21:52:00,37.0,29.0,-100.00,NNE,25,4.0,5.0,72,0.00,,,0.00,1.000000,,2013-02-14 05:52:00,
2013-02-13 22:11:00,32.0,27.0,-100.00,East,88,3.0,6.0,83,0.00,,,0.00,1.000000,,2013-02-14 06:11:00,
2013-02-13 22:21:00,32.0,27.0,-100.00,East,88,3.0,6.0,83,0.00,,,0.00,1.000000,,2013-02-14 06:21:00,
2013-02-13 22:31:00,32.0,27.0,-100.00,East,88,3.0,6.0,83,0.00,,,0.00,1.000000,,2013-02-14 06:31:00,
2013-02-13 22:41:00,32.0,27.0,-100.00,East,88,3.0,6.0,83,0.00,,,0.00,1.000000,,2013-02-14 06:41:00,
2013-02-13 22:51:00,32.0,27.0,-100.00,East,88,3.0,6.0,83,0.00,,,0.00,1.000000,,2013-02-14 06:51:00,
2013-02-13 23:21:00,32.0,28.0,-100.00,ESE,105,3.0,5.0,84,0.00,,,0.00,1.000000,,2013-02-14 07:21:00,
2013-02-13 23:31:00,32.0,28.0,-100.00,ESE,105,3.0,5.0,84,0.00,,,0.00,1.000000,,2013-02-14 07:31:00,
2013-02-13 23:41:00,32.0,28.0,-100.00,ESE,105,3.0,5.0,84,0.00,,,0.00,1.000000,,2013-02-14 07:41:00,
2013-02-13 23:51:00,32.0,28.0,-100.00,ESE,105,3.0,5.0,84,0.00,,,0.00,1.000000,,2013-02-14 07:51:00,